createdAt,value
2022-11-28T00:01:51.825Z,10.05
2022-11-28T00:05:53.939Z,9.85
2022-11-28T00:09:56.256Z,9.25
2022-11-28T00:13:58.361Z,10.48
2022-11-28T00:18:00.447Z,8.45
2022-11-28T00:22:02.553Z,9.30
2022-11-28T00:26:23.457Z,11.02
2022-11-28T00:30:25.495Z,10.55
2022-11-28T00:34:27.499Z,9.25
2022-11-28T00:38:30.349Z,10.25
2022-11-28T00:42:32.389Z,10.25
2022-11-28T00:46:34.424Z,10.13
2022-11-28T00:50:36.409Z,11.65
2022-11-28T00:54:38.482Z,10.77
2022-11-28T00:58:41.172Z,10.90
2022-11-28T01:02:43.429Z,10.98
2022-11-28T01:06:48.404Z,9.60
2022-11-28T01:10:50.442Z,10.68
2022-11-28T01:14:52.461Z,9.35
2022-11-28T01:18:54.636Z,11.13
2022-11-28T01:22:56.624Z,10.43
2022-11-28T01:26:59.051Z,10.00
2022-11-28T01:31:09.785Z,10.95
2022-11-28T01:35:12.073Z,9.63
2022-11-28T01:39:15.661Z,10.68
2022-11-28T01:43:18.279Z,10.65
2022-11-28T01:47:27.754Z,10.15
2022-11-28T01:51:30.236Z,10.20
2022-11-28T01:55:44.310Z,11.38
2022-11-28T01:59:56.870Z,11.88
2022-11-28T02:03:59.849Z,11.18
2022-11-28T02:08:02.719Z,10.35
2022-11-28T02:12:27.930Z,10.55
2022-11-28T02:16:54.219Z,11.00
2022-11-28T02:21:44.352Z,11.43
2022-11-28T02:26:14.222Z,12.18
2022-11-28T02:30:34.088Z,10.88
2022-11-28T02:34:46.675Z,10.77
2022-11-28T02:39:13.542Z,11.85
2022-11-28T02:43:22.975Z,13.02
2022-11-28T02:47:34.042Z,11.82
2022-11-28T02:51:45.996Z,10.63
2022-11-28T02:55:51.216Z,11.25
2022-11-28T02:59:55.399Z,12.50
2022-11-28T03:04:15.960Z,11.07
2022-11-28T03:08:39.735Z,10.30
2022-11-28T03:12:59.440Z,11.95
2022-11-28T03:17:07.602Z,11.85
2022-11-28T03:21:22.419Z,11.05
2022-11-28T03:25:47.990Z,12.60
2022-11-28T03:29:54.907Z,12.45
2022-11-28T03:33:59.547Z,10.38
2022-11-28T03:38:07.026Z,11.25
2022-11-28T03:42:13.352Z,12.27
2022-11-28T03:46:19.912Z,11.40
2022-11-28T03:50:29.068Z,13.77
2022-11-28T03:54:36.404Z,11.35
2022-11-28T03:58:54.076Z,10.40
2022-11-28T04:02:56.109Z,14.38
2022-11-28T04:07:28.268Z,11.95
2022-11-28T04:11:37.647Z,11.75
2022-11-28T04:15:53.383Z,13.70
2022-11-28T04:20:04.072Z,11.75
2022-11-28T04:24:14.442Z,11.60
2022-11-28T04:28:20.817Z,11.15
2022-11-28T04:32:25.208Z,13.03
2022-11-28T04:36:29.007Z,12.43
2022-11-28T04:40:37.097Z,12.65
2022-11-28T04:44:57.257Z,11.88
2022-11-28T04:48:59.465Z,13.23
2022-11-28T04:53:18.518Z,12.60
2022-11-28T04:57:43.221Z,11.98
2022-11-28T05:01:48.511Z,13.23
2022-11-28T05:05:51.509Z,14.38
2022-11-28T05:09:55.557Z,13.25
2022-11-28T05:13:57.776Z,13.40
2022-11-28T05:17:59.966Z,13.35
2022-11-28T05:22:02.025Z,15.73
2022-11-28T05:26:08.962Z,14.68
2022-11-28T05:30:11.876Z,13.18
2022-11-28T05:34:13.918Z,14.18
2022-11-28T05:38:15.966Z,14.50
2022-11-28T05:42:17.962Z,12.90
2022-11-28T05:46:20.422Z,13.65
2022-11-28T05:50:22.450Z,14.00
2022-11-28T05:54:24.509Z,15.07
2022-11-28T05:58:26.492Z,14.30
2022-11-28T06:02:28.536Z,13.07
2022-11-28T06:06:32.874Z,15.27
2022-11-28T06:10:35.469Z,14.18
2022-11-28T06:14:37.597Z,14.38
2022-11-28T06:18:40.127Z,15.55
2022-11-28T06:22:42.123Z,15.50
2022-11-28T06:26:44.185Z,16.55
2022-11-28T06:30:46.221Z,13.88
2022-11-28T06:34:48.271Z,17.30
2022-11-28T06:38:50.362Z,14.77
2022-11-28T06:42:52.387Z,16.45
2022-11-28T06:46:55.115Z,15.45
2022-11-28T06:51:05.307Z,16.80
2022-11-28T06:55:07.650Z,16.42
2022-11-28T06:59:11.505Z,14.02
2022-11-28T07:03:13.503Z,14.40
2022-11-28T07:07:16.759Z,14.98
2022-11-28T07:11:24.831Z,15.32
2022-11-28T07:15:27.524Z,16.08
2022-11-28T07:19:29.535Z,14.70
2022-11-28T07:23:31.541Z,14.07
2022-11-28T07:27:33.534Z,16.13
2022-11-28T07:31:37.060Z,14.65
2022-11-28T07:35:39.163Z,14.55
2022-11-28T07:39:42.592Z,14.88
2022-11-28T07:43:46.673Z,13.82
2022-11-28T07:47:48.767Z,20.40
2022-11-28T07:51:50.746Z,17.52
2022-11-28T07:55:52.812Z,17.48
2022-11-28T07:59:54.853Z,14.82
2022-11-28T08:03:57.318Z,13.13
2022-11-28T08:07:59.563Z,15.27
2022-11-28T08:12:01.667Z,15.38
2022-11-28T08:16:09.783Z,15.15
2022-11-28T08:20:12.187Z,13.88
2022-11-28T08:24:14.852Z,14.48
2022-11-28T08:28:16.839Z,17.27
2022-11-28T08:32:18.912Z,12.35
2022-11-28T08:36:21.645Z,13.80
2022-11-28T08:40:23.640Z,12.27
2022-11-28T08:44:27.239Z,12.18
2022-11-28T08:48:30.358Z,12.35
2022-11-28T08:52:32.874Z,13.80
2022-11-28T08:56:34.888Z,10.70
2022-11-28T09:00:37.066Z,11.68
2022-11-28T09:04:39.124Z,14.52
2022-11-28T09:08:41.478Z,12.05
2022-11-28T09:12:43.446Z,13.30
2022-11-28T09:16:45.631Z,14.05
2022-11-28T09:20:47.684Z,15.55
2022-11-28T09:24:49.801Z,18.30
2022-11-28T09:28:52.592Z,13.75
2022-11-28T09:32:54.654Z,12.27
2022-11-28T09:36:59.678Z,12.48
2022-11-28T09:41:21.733Z,12.60
2022-11-28T09:45:24.722Z,12.55
2022-11-28T09:49:44.588Z,14.13
2022-11-28T09:53:59.912Z,13.30
2022-11-28T09:58:11.880Z,14.00
2022-11-28T10:02:39.706Z,12.15
2022-11-28T10:06:47.758Z,12.93
2022-11-28T10:11:09.510Z,12.38
2022-11-28T10:15:39.868Z,13.02
2022-11-28T10:19:56.155Z,10.73
2022-11-28T10:24:03.609Z,13.23
2022-11-28T10:28:09.854Z,11.63
2022-11-28T10:32:18.501Z,12.30
2022-11-28T10:36:34.499Z,11.80
2022-11-28T10:41:04.736Z,11.25
2022-11-28T10:45:14.827Z,13.35
2022-11-28T10:49:44.447Z,13.77
2022-11-28T10:54:03.919Z,12.32
2022-11-28T10:58:27.287Z,10.32
2022-11-28T11:02:45.016Z,11.90
2022-11-28T11:07:08.436Z,11.52
2022-11-28T11:11:29.438Z,11.93
2022-11-28T11:15:33.439Z,11.93
2022-11-28T11:19:39.611Z,10.50
2022-11-28T11:23:42.522Z,10.18
2022-11-28T11:28:00.903Z,10.40
2022-11-28T11:32:06.390Z,12.38
2022-11-28T11:36:22.702Z,11.10
2022-11-28T11:40:27.639Z,11.43
2022-11-28T11:44:34.249Z,12.60
2022-11-28T11:48:51.898Z,11.68
2022-11-28T11:57:31.495Z,13.68
2022-11-28T12:01:26.631Z,11.90
2022-11-28T12:06:12.713Z,10.68
2022-11-28T12:10:16.163Z,11.05
2022-11-28T12:14:23.885Z,14.27
2022-11-28T12:18:46.080Z,10.45
2022-11-28T12:23:33.087Z,12.68
2022-11-28T12:27:58.005Z,11.00
2022-11-28T12:32:07.833Z,10.88
2022-11-28T12:36:32.617Z,10.65
2022-11-28T12:40:56.205Z,11.98
2022-11-28T12:45:23.341Z,13.05
2022-11-28T12:49:52.160Z,11.90
2022-11-28T12:53:57.188Z,11.38
2022-11-28T12:58:09.170Z,12.88
2022-11-28T13:02:30.193Z,12.55
2022-11-28T13:06:51.544Z,13.38
2022-11-28T13:11:13.708Z,12.30
2022-11-28T13:15:24.767Z,12.85
2022-11-28T13:19:38.915Z,12.52
2022-11-28T13:23:47.923Z,13.10
2022-11-28T13:28:02.712Z,15.38
2022-11-28T13:32:13.928Z,12.52
2022-11-28T13:41:22.874Z,15.63
2022-11-28T13:45:42.131Z,14.68
2022-11-28T13:49:44.176Z,14.77
2022-11-28T13:53:47.597Z,14.50
2022-11-28T13:57:49.657Z,16.45
2022-11-28T14:02:01.039Z,17.00
2022-11-28T14:06:07.048Z,15.50
2022-11-28T14:10:30.438Z,14.05
2022-11-28T14:14:54.167Z,15.98
2022-11-28T14:19:25.389Z,14.85
2022-11-28T14:23:52.620Z,14.27
2022-11-28T14:28:14.630Z,15.17
2022-11-28T14:32:34.064Z,14.98
2022-11-28T14:36:43.637Z,14.18
2022-11-28T14:41:04.619Z,12.68
2022-11-28T14:45:43.396Z,13.05
2022-11-28T14:49:46.508Z,13.85
2022-11-28T14:53:49.822Z,14.63
2022-11-28T14:57:57.893Z,11.98
2022-11-28T15:02:31.816Z,14.48
2022-11-28T15:06:37.906Z,12.20
2022-11-28T15:11:08.119Z,13.10
2022-11-28T15:15:13.700Z,12.88
2022-11-28T15:19:23.164Z,13.50
2022-11-28T15:23:29.541Z,13.35
2022-11-28T15:27:31.620Z,11.47
2022-11-28T15:31:33.688Z,13.77
2022-11-28T15:35:35.745Z,16.92
2022-11-28T15:39:41.032Z,13.43
2022-11-28T15:43:45.837Z,11.85
2022-11-28T15:47:49.156Z,11.18
2022-11-28T15:51:56.130Z,11.07
2022-11-28T15:56:15.573Z,11.82
2022-11-28T16:00:21.846Z,11.15
2022-11-28T16:04:24.050Z,11.65
2022-11-28T16:08:33.760Z,11.30
2022-11-28T16:12:36.424Z,9.27
2022-11-28T16:16:39.421Z,7.75
2022-11-28T16:20:42.748Z,7.63
2022-11-28T16:24:55.983Z,7.32
2022-11-28T16:29:06.982Z,9.23
2022-11-28T16:33:38.875Z,12.48
2022-11-28T16:37:40.899Z,15.07
2022-11-28T16:42:16.541Z,18.58
2022-11-28T16:46:24.703Z,17.15
2022-11-28T16:50:26.729Z,14.75
2022-11-28T16:54:31.314Z,16.67
2022-11-28T16:58:33.311Z,18.15
2022-11-28T17:02:35.373Z,17.25
2022-11-28T17:06:37.673Z,18.63
2022-11-28T17:10:39.696Z,16.90
2022-11-28T17:14:43.995Z,18.98
2022-11-28T17:18:46.254Z,18.45
2022-11-28T17:22:50.989Z,20.40
2022-11-28T17:26:54.128Z,17.08
2022-11-28T17:30:56.148Z,19.95
2022-11-28T17:35:03.272Z,19.65
2022-11-28T17:39:05.538Z,18.25
2022-11-28T17:43:16.562Z,18.45
2022-11-28T17:47:18.603Z,18.58
2022-11-28T17:51:20.749Z,20.50
2022-11-28T17:55:22.933Z,25.73
2022-11-28T17:59:26.921Z,22.20
2022-11-28T18:03:29.876Z,18.25
2022-11-28T18:07:32.026Z,20.17
2022-11-28T18:11:35.770Z,16.10
2022-11-28T18:15:39.658Z,17.58
2022-11-28T18:19:42.311Z,13.82
2022-11-28T18:23:47.037Z,15.32
2022-11-28T18:27:49.633Z,14.23
2022-11-28T18:31:51.760Z,15.23
2022-11-28T18:35:54.001Z,13.85
2022-11-28T18:39:56.388Z,13.90
2022-11-28T18:44:00.927Z,13.75
2022-11-28T18:48:03.009Z,14.18
2022-11-28T18:52:05.821Z,14.75
2022-11-28T18:56:08.704Z,15.20
2022-11-28T19:00:11.461Z,15.00
2022-11-28T19:04:15.433Z,14.13
2022-11-28T19:08:18.626Z,14.70
2022-11-28T19:12:20.761Z,12.32
2022-11-28T19:16:29.145Z,15.77
2022-11-28T19:24:33.031Z,17.50
2022-11-28T19:28:35.879Z,13.27
2022-11-28T19:32:38.265Z,16.30
2022-11-28T19:36:43.283Z,15.73
2022-11-28T19:40:45.561Z,19.33
2022-11-28T19:44:47.658Z,16.65
2022-11-28T19:48:51.480Z,14.07
2022-11-28T19:52:54.158Z,14.27
2022-11-28T19:56:56.290Z,13.38
2022-11-28T20:01:09.318Z,16.23
2022-11-28T20:05:11.426Z,14.70
2022-11-28T20:09:13.891Z,15.30
2022-11-28T20:13:18.517Z,15.57
2022-11-28T20:17:20.978Z,14.90
2022-11-28T20:21:23.291Z,13.93
2022-11-28T20:25:25.708Z,14.98
2022-11-28T20:29:28.646Z,16.17
2022-11-28T20:33:30.934Z,15.10
2022-11-28T20:37:33.126Z,19.55
2022-11-28T20:41:35.312Z,16.75
2022-11-28T20:45:37.386Z,20.88
2022-11-28T20:49:39.411Z,15.18
2022-11-28T20:53:41.552Z,15.10
2022-11-28T20:57:43.569Z,14.65
2022-11-28T21:01:45.554Z,13.90
2022-11-28T21:05:47.618Z,14.73
2022-11-28T21:09:49.619Z,15.93
2022-11-28T21:13:52.000Z,14.38
2022-11-28T21:17:54.071Z,13.70
2022-11-28T21:21:56.092Z,13.10
2022-11-28T21:26:03.836Z,14.63
2022-11-28T21:30:06.644Z,13.15
2022-11-28T21:34:14.026Z,17.02
2022-11-28T21:38:16.031Z,12.68
2022-11-28T21:42:20.642Z,11.93
2022-11-28T21:46:23.495Z,11.98
2022-11-28T21:50:25.605Z,12.95
2022-11-28T21:54:28.077Z,15.35
2022-11-28T21:58:30.716Z,13.10
2022-11-28T22:02:33.720Z,13.43
2022-11-28T22:06:35.898Z,11.45
2022-11-28T22:10:38.049Z,10.02
2022-11-28T22:14:41.155Z,10.55
2022-11-28T22:18:43.292Z,8.77
2022-11-28T22:22:48.067Z,11.00
2022-11-28T22:26:50.186Z,10.25
2022-11-28T22:30:53.455Z,9.45
2022-11-28T22:34:55.875Z,9.90
2022-11-28T22:38:58.841Z,9.82
2022-11-28T22:43:01.071Z,8.73
2022-11-28T22:47:03.153Z,15.15
2022-11-28T22:51:15.777Z,9.02
2022-11-28T22:55:18.134Z,8.45
2022-11-28T22:59:20.342Z,9.60
2022-11-28T23:03:23.769Z,10.07
2022-11-28T23:07:26.088Z,8.57
2022-11-28T23:11:32.599Z,10.45
2022-11-28T23:15:34.988Z,9.13
2022-11-28T23:19:37.600Z,10.07
2022-11-28T23:23:40.724Z,9.30
2022-11-28T23:27:42.725Z,9.13
2022-11-28T23:31:46.944Z,9.30
2022-11-28T23:35:49.120Z,10.07
2022-11-28T23:39:51.406Z,10.40
2022-11-28T23:43:54.123Z,9.52
2022-11-28T23:47:56.096Z,9.43
2022-11-28T23:51:58.717Z,10.45
2022-11-28T23:56:13.080Z,9.57
